createdAt,value
2018-02-21T00:02:11.921Z,43.23
2018-02-21T00:04:40.373Z,40.67
2018-02-21T00:07:08.717Z,44.33
2018-02-21T00:09:37.065Z,38.10
2018-02-21T00:12:05.394Z,39.50
2018-02-21T00:14:33.764Z,39.90
2018-02-21T00:17:02.112Z,39.40
2018-02-21T00:19:30.573Z,39.00
2018-02-21T00:21:58.919Z,37.27
2018-02-21T00:24:27.205Z,38.23
2018-02-21T00:26:55.547Z,39.33
2018-02-21T00:29:23.878Z,53.60
2018-02-21T00:31:52.248Z,43.23
2018-02-21T00:34:20.632Z,40.50
2018-02-21T00:36:48.999Z,46.53
2018-02-21T00:39:17.286Z,40.53
2018-02-21T00:41:45.610Z,43.50
2018-02-21T00:44:13.901Z,41.70
2018-02-21T00:46:42.226Z,34.60
2018-02-21T00:49:10.591Z,42.03
2018-02-21T00:51:39.089Z,39.07
2018-02-21T00:54:07.500Z,38.60
2018-02-21T00:56:35.844Z,52.73
2018-02-21T00:59:04.411Z,38.23
2018-02-21T01:01:32.779Z,39.57
2018-02-21T01:04:01.114Z,44.43
2018-02-21T01:06:29.528Z,40.27
2018-02-21T01:08:57.834Z,37.30
2018-02-21T01:11:26.148Z,41.73
2018-02-21T01:13:54.513Z,48.80
2018-02-21T01:16:22.843Z,43.27
2018-02-21T01:18:51.243Z,39.10
2018-02-21T01:21:19.601Z,42.50
2018-02-21T01:23:48.466Z,41.43
2018-02-21T01:26:16.969Z,41.93
2018-02-21T01:28:45.441Z,39.00
2018-02-21T01:31:13.830Z,40.13
2018-02-21T01:33:42.165Z,48.90
2018-02-21T01:36:10.694Z,50.30
2018-02-21T01:38:39.144Z,40.60
2018-02-21T01:41:07.484Z,42.23
2018-02-21T01:43:35.789Z,41.77
2018-02-21T01:46:04.102Z,41.37
2018-02-21T01:48:32.444Z,40.97
2018-02-21T01:51:00.788Z,44.73
2018-02-21T01:53:29.102Z,45.00
2018-02-21T01:55:57.441Z,42.00
2018-02-21T01:58:25.833Z,44.20
2018-02-21T02:01:00.983Z,41.20
2018-02-21T02:03:29.285Z,52.07
2018-02-21T02:05:57.793Z,36.83
2018-02-21T02:08:26.139Z,43.30
2018-02-21T02:10:54.478Z,40.33
2018-02-21T02:13:22.817Z,50.73
2018-02-21T02:15:51.174Z,44.67
2018-02-21T02:18:20.376Z,43.10
2018-02-21T02:20:48.873Z,43.43
2018-02-21T02:23:17.341Z,40.97
2018-02-21T02:25:45.838Z,42.30
2018-02-21T02:28:14.226Z,42.17
2018-02-21T02:30:42.595Z,41.13
2018-02-21T02:33:11.233Z,44.77
2018-02-21T02:35:39.761Z,38.77
2018-02-21T02:38:08.281Z,44.83
2018-02-21T02:40:36.645Z,37.00
2018-02-21T02:43:04.938Z,47.33
2018-02-21T02:45:33.433Z,43.63
2018-02-21T02:48:01.742Z,41.23
2018-02-21T02:50:30.092Z,46.13
2018-02-21T02:52:58.434Z,42.97
2018-02-21T02:55:26.794Z,42.87
2018-02-21T02:57:55.095Z,43.23
2018-02-21T03:00:23.450Z,41.90
2018-02-21T03:02:51.789Z,46.93
2018-02-21T03:05:23.522Z,47.20
2018-02-21T03:07:52.929Z,42.83
2018-02-21T03:10:21.274Z,46.00
2018-02-21T03:12:49.751Z,39.20
2018-02-21T03:15:18.247Z,48.77
2018-02-21T03:17:46.569Z,45.87
2018-02-21T03:20:15.069Z,39.63
2018-02-21T03:22:47.427Z,42.60
2018-02-21T03:25:15.751Z,41.73
2018-02-21T03:27:44.112Z,44.73
2018-02-21T03:30:12.482Z,41.87
2018-02-21T03:32:40.845Z,40.20
2018-02-21T03:35:12.249Z,43.10
2018-02-21T03:37:40.615Z,38.27
2018-02-21T03:40:09.083Z,43.37
2018-02-21T03:42:37.385Z,41.10
2018-02-21T03:45:05.751Z,43.13
2018-02-21T03:47:34.054Z,39.43
2018-02-21T03:50:02.333Z,41.80
2018-02-21T03:52:30.716Z,45.73
2018-02-21T03:54:59.030Z,40.60
2018-02-21T03:57:27.388Z,45.53
2018-02-21T03:59:55.864Z,49.10
2018-02-21T04:02:24.193Z,45.70
2018-02-21T04:04:52.556Z,42.40
2018-02-21T04:07:20.933Z,40.67
2018-02-21T04:09:49.228Z,40.67
2018-02-21T04:12:17.571Z,40.53
2018-02-21T04:14:45.877Z,43.63
2018-02-21T04:17:14.204Z,42.07
2018-02-21T04:19:43.565Z,42.67
2018-02-21T04:22:18.301Z,38.30
2018-02-21T04:24:46.626Z,41.73
2018-02-21T04:27:14.984Z,44.20
2018-02-21T04:29:43.319Z,39.20
2018-02-21T04:32:11.664Z,43.20
2018-02-21T04:34:40.130Z,46.80
2018-02-21T04:37:08.448Z,44.30
2018-02-21T04:39:36.799Z,44.30
2018-02-21T04:42:05.218Z,46.93
2018-02-21T04:44:34.068Z,42.20
2018-02-21T04:47:02.406Z,44.97
2018-02-21T04:49:30.990Z,41.80
2018-02-21T04:51:59.329Z,42.87
2018-02-21T04:54:27.798Z,44.17
2018-02-21T04:56:56.629Z,41.10
2018-02-21T04:59:25.205Z,45.70
2018-02-21T05:04:49.197Z,43.17
2018-02-21T05:07:17.776Z,47.47
2018-02-21T05:09:47.168Z,43.77
2018-02-21T05:12:17.955Z,39.67
2018-02-21T05:14:47.493Z,43.80
2018-02-21T05:17:16.186Z,40.30
2018-02-21T05:19:46.101Z,41.40
2018-02-21T05:22:14.701Z,46.50
2018-02-21T05:24:43.853Z,41.40
2018-02-21T05:27:12.551Z,41.43
2018-02-21T05:29:41.274Z,43.70
2018-02-21T05:32:09.984Z,46.60
2018-02-21T05:34:39.106Z,44.97
2018-02-21T05:37:07.731Z,45.77
2018-02-21T05:39:36.741Z,46.90
2018-02-21T05:42:06.064Z,49.83
2018-02-21T05:44:34.764Z,54.17
2018-02-21T05:47:03.918Z,46.17
2018-02-21T05:49:32.631Z,42.33
2018-02-21T05:52:02.274Z,49.53
2018-02-21T05:54:31.526Z,47.17
2018-02-21T05:57:00.569Z,51.60
2018-02-21T05:59:29.124Z,50.53
2018-02-21T06:01:57.918Z,51.77
2018-02-21T06:04:26.703Z,43.10
2018-02-21T06:06:55.287Z,47.60
2018-02-21T06:09:23.814Z,50.13
2018-02-21T06:11:52.572Z,42.30
2018-02-21T06:14:21.083Z,57.27
2018-02-21T06:16:49.751Z,53.40
2018-02-21T06:19:18.466Z,51.77
2018-02-21T06:21:47.158Z,54.63
2018-02-21T06:24:15.726Z,50.50
2018-02-21T06:26:44.693Z,43.80
2018-02-21T06:29:14.102Z,53.10
2018-02-21T06:31:42.689Z,55.87
2018-02-21T06:34:11.775Z,40.20
2018-02-21T06:36:41.084Z,45.43
2018-02-21T06:39:11.334Z,45.10
2018-02-21T06:41:43.357Z,42.00
2018-02-21T06:44:12.268Z,53.07
2018-02-21T06:46:41.096Z,47.90
2018-02-21T06:49:09.850Z,42.77
2018-02-21T06:51:39.861Z,47.87
2018-02-21T06:54:08.812Z,43.43
2018-02-21T06:56:37.696Z,47.40
2018-02-21T06:59:06.813Z,38.10
2018-02-21T07:01:35.730Z,44.90
2018-02-21T07:04:04.534Z,48.73
2018-02-21T07:06:34.127Z,43.30
2018-02-21T07:09:03.553Z,50.87
2018-02-21T07:11:32.426Z,48.70
2018-02-21T07:14:00.979Z,43.27
2018-02-21T07:16:29.786Z,43.47
2018-02-21T07:18:58.771Z,49.13
2018-02-21T07:21:27.461Z,46.27
2018-02-21T07:23:55.972Z,45.70
2018-02-21T07:26:24.539Z,43.77
2018-02-21T07:28:53.272Z,45.53
2018-02-21T07:31:21.848Z,49.40
2018-02-21T07:33:50.814Z,42.47
2018-02-21T07:36:19.697Z,52.10
2018-02-21T07:38:48.438Z,52.73
2018-02-21T07:41:17.564Z,49.10
2018-02-21T07:43:47.215Z,49.50
2018-02-21T07:46:16.034Z,51.77
2018-02-21T07:48:46.286Z,50.30
2018-02-21T07:51:16.772Z,47.13
2018-02-21T07:53:45.428Z,53.60
2018-02-21T07:56:14.284Z,45.40
2018-02-21T07:58:42.885Z,46.20
2018-02-21T08:01:12.561Z,41.63
2018-02-21T08:03:42.268Z,44.13
2018-02-21T08:06:11.168Z,41.97
2018-02-21T08:08:39.940Z,43.37
2018-02-21T08:11:08.664Z,52.90
2018-02-21T08:13:37.466Z,42.90
2018-02-21T08:16:06.279Z,50.00
2018-02-21T08:18:36.085Z,48.23
2018-02-21T08:21:05.025Z,52.33
2018-02-21T08:23:33.527Z,40.87
2018-02-21T08:26:02.699Z,46.00
2018-02-21T08:28:31.732Z,58.97
2018-02-21T08:31:00.602Z,48.67
2018-02-21T08:33:29.181Z,45.10
2018-02-21T08:35:58.054Z,44.07
2018-02-21T08:38:26.667Z,46.93
2018-02-21T08:40:55.613Z,48.57
2018-02-21T08:43:24.672Z,45.30
2018-02-21T08:45:53.476Z,48.77
2018-02-21T08:48:22.105Z,46.17
2018-02-21T08:50:51.152Z,48.10
2018-02-21T08:53:19.809Z,47.77
2018-02-21T08:55:48.579Z,44.47
2018-02-21T08:58:17.128Z,46.37
2018-02-21T09:00:46.913Z,41.33
2018-02-21T09:03:19.540Z,42.03
2018-02-21T09:05:48.627Z,47.20
2018-02-21T09:08:17.690Z,42.60
2018-02-21T09:10:46.805Z,50.30
2018-02-21T09:13:15.714Z,41.17
2018-02-21T09:15:44.768Z,53.13
2018-02-21T09:18:13.705Z,49.27
2018-02-21T09:20:42.293Z,46.47
2018-02-21T09:23:12.100Z,43.93
2018-02-21T09:25:40.910Z,48.27
2018-02-21T09:28:10.097Z,48.40
2018-02-21T09:30:39.120Z,45.97
2018-02-21T09:33:07.765Z,45.23
2018-02-21T09:35:37.330Z,42.40
2018-02-21T09:38:06.164Z,45.73
2018-02-21T09:40:35.723Z,46.87
2018-02-21T09:43:04.754Z,46.03
2018-02-21T09:45:34.216Z,44.33
2018-02-21T09:48:10.423Z,42.67
2018-02-21T09:50:39.218Z,49.20
2018-02-21T09:53:07.988Z,42.93
2018-02-21T09:55:36.820Z,43.03
2018-02-21T09:58:05.851Z,44.40
2018-02-21T10:00:39.674Z,43.73
2018-02-21T10:03:08.430Z,49.47
2018-02-21T10:05:37.224Z,42.63
2018-02-21T10:08:05.937Z,47.93
2018-02-21T10:10:34.615Z,47.90
2018-02-21T10:13:04.169Z,45.50
2018-02-21T10:15:33.825Z,44.00
2018-02-21T10:18:02.662Z,43.80
2018-02-21T10:20:31.501Z,45.50
2018-02-21T10:23:00.377Z,43.33
2018-02-21T10:25:29.681Z,46.17
2018-02-21T10:27:58.415Z,41.90
2018-02-21T10:30:27.203Z,34.57
2018-02-21T10:32:56.426Z,35.53
2018-02-21T10:35:25.117Z,33.97
2018-02-21T10:37:54.088Z,32.97
2018-02-21T10:40:23.502Z,34.67
2018-02-21T10:42:52.098Z,35.43
2018-02-21T10:45:20.701Z,33.07
2018-02-21T10:47:49.798Z,35.50
2018-02-21T10:50:18.326Z,36.97
2018-02-21T10:52:46.963Z,32.90
2018-02-21T10:55:15.781Z,28.20
2018-02-21T10:57:44.461Z,25.53
2018-02-21T11:00:14.237Z,23.90
2018-02-21T11:02:42.915Z,27.43
2018-02-21T11:05:12.453Z,31.00
2018-02-21T11:07:41.249Z,22.77
2018-02-21T11:10:10.361Z,20.37
2018-02-21T11:12:39.154Z,27.83
2018-02-21T11:15:07.910Z,26.90
2018-02-21T11:17:36.619Z,22.00
2018-02-21T11:20:05.360Z,18.70
2018-02-21T11:22:33.968Z,19.97
2018-02-21T11:25:02.949Z,18.40
2018-02-21T11:27:31.830Z,21.17
2018-02-21T11:30:00.697Z,21.20
2018-02-21T11:32:29.632Z,26.37
2018-02-21T11:34:58.269Z,26.73
2018-02-21T11:37:27.047Z,28.63
2018-02-21T11:39:55.985Z,22.70
2018-02-21T11:42:25.419Z,30.30
2018-02-21T11:44:54.324Z,23.20
2018-02-21T11:47:23.525Z,23.20
2018-02-21T11:49:52.385Z,22.70
2018-02-21T11:52:20.949Z,19.90
2018-02-21T11:54:49.690Z,21.63
2018-02-21T11:57:18.682Z,24.30
2018-02-21T11:59:47.330Z,21.73
2018-02-21T12:02:18.288Z,20.07
2018-02-21T12:04:49.099Z,18.50
2018-02-21T12:07:17.706Z,19.27
2018-02-21T12:09:47.168Z,17.90
2018-02-21T12:12:16.642Z,21.40
2018-02-21T12:14:45.900Z,21.00
2018-02-21T12:17:14.713Z,20.13
2018-02-21T12:19:45.469Z,20.20
2018-02-21T12:22:14.330Z,19.87
2018-02-21T12:24:45.854Z,20.00
2018-02-21T12:27:15.627Z,26.00
2018-02-21T12:29:46.529Z,32.87
2018-02-21T12:32:15.677Z,18.60
2018-02-21T12:34:44.245Z,23.57
2018-02-21T12:37:13.878Z,19.70
2018-02-21T12:39:47.540Z,18.70
2018-02-21T12:42:17.329Z,15.40
2018-02-21T12:44:46.876Z,16.40
2018-02-21T12:47:16.328Z,14.80
2018-02-21T12:49:46.104Z,15.77
2018-02-21T12:52:15.048Z,17.73
2018-02-21T12:54:43.929Z,19.63
2018-02-21T12:57:13.166Z,24.10
2018-02-21T12:59:42.782Z,19.00
2018-02-21T13:02:17.281Z,20.03
2018-02-21T13:04:47.443Z,18.73
2018-02-21T13:07:16.792Z,16.77
2018-02-21T13:09:46.256Z,21.60
2018-02-21T13:12:17.381Z,18.90
2018-02-21T13:14:46.859Z,20.13
2018-02-21T13:17:16.261Z,23.53
2018-02-21T13:19:45.859Z,17.03
2018-02-21T13:22:15.040Z,17.70
2018-02-21T13:24:44.513Z,18.20
2018-02-21T13:27:13.930Z,16.27
2018-02-21T13:29:43.997Z,18.50
2018-02-21T13:32:15.670Z,18.77
2018-02-21T13:34:44.844Z,20.07
2018-02-21T13:37:13.603Z,18.47
2018-02-21T13:39:42.642Z,18.50
2018-02-21T13:42:11.773Z,18.87
2018-02-21T13:44:41.680Z,19.67
2018-02-21T13:47:10.793Z,19.63
2018-02-21T13:49:40.939Z,27.63
2018-02-21T13:52:09.975Z,16.33
2018-02-21T13:54:38.902Z,21.63
2018-02-21T13:57:07.597Z,18.70
2018-02-21T13:59:37.258Z,24.87
2018-02-21T14:02:28.665Z,26.00
2018-02-21T14:04:58.962Z,20.83
2018-02-21T14:07:27.644Z,16.63
2018-02-21T14:09:56.965Z,15.97
2018-02-21T14:12:26.166Z,13.30
2018-02-21T14:14:55.621Z,16.03
2018-02-21T14:17:25.896Z,15.03
2018-02-21T14:19:54.762Z,14.80
2018-02-21T14:22:24.411Z,15.37
2018-02-21T14:24:58.076Z,14.50
2018-02-21T14:27:32.287Z,19.93
2018-02-21T14:30:04.400Z,12.40
2018-02-21T14:32:36.356Z,13.70
2018-02-21T14:35:06.213Z,15.37
2018-02-21T14:37:38.042Z,16.53
2018-02-21T14:40:10.532Z,14.63
2018-02-21T14:42:40.242Z,14.30
2018-02-21T14:45:11.722Z,16.23
2018-02-21T14:47:42.663Z,17.70
2018-02-21T14:50:12.304Z,14.93
2018-02-21T14:52:43.532Z,14.77
2018-02-21T14:55:14.382Z,15.27
2018-02-21T14:57:44.027Z,15.70
2018-02-21T15:00:14.552Z,17.63
2018-02-21T15:02:47.806Z,14.57
2018-02-21T15:05:17.794Z,14.80
2018-02-21T15:07:47.477Z,17.10
2018-02-21T15:10:20.115Z,15.13
2018-02-21T15:12:51.434Z,13.07
2018-02-21T15:15:24.858Z,14.67
2018-02-21T15:17:56.764Z,14.27
2018-02-21T15:20:30.501Z,13.80
2018-02-21T15:23:04.810Z,15.67
2018-02-21T15:25:35.561Z,16.47
2018-02-21T15:28:07.098Z,14.23
2018-02-21T15:30:41.490Z,14.60
2018-02-21T15:33:15.845Z,14.53
2018-02-21T15:35:51.228Z,12.70
2018-02-21T15:38:25.710Z,18.30
2018-02-21T15:41:02.588Z,13.57
2018-02-21T15:43:42.903Z,19.83
2018-02-21T15:46:15.479Z,12.83
2018-02-21T15:48:50.998Z,14.07
2018-02-21T15:51:27.818Z,11.70
2018-02-21T15:54:05.629Z,13.60
2018-02-21T15:56:43.168Z,18.40
2018-02-21T15:59:18.639Z,20.17
2018-02-21T16:01:53.770Z,20.13
2018-02-21T16:04:27.357Z,14.50
2018-02-21T16:07:01.489Z,20.40
2018-02-21T16:09:39.833Z,17.40
2018-02-21T16:12:16.713Z,16.40
2018-02-21T16:14:52.706Z,20.70
2018-02-21T16:17:31.374Z,20.10
2018-02-21T16:20:08.751Z,16.93
2018-02-21T16:22:45.865Z,24.40
2018-02-21T16:25:21.893Z,19.10
2018-02-21T16:28:04.346Z,19.60
2018-02-21T16:30:43.622Z,17.73
2018-02-21T16:33:20.898Z,19.37
2018-02-21T16:35:58.655Z,17.93
2018-02-21T16:38:32.573Z,19.20
2018-02-21T16:41:08.570Z,26.50
2018-02-21T16:43:44.807Z,20.27
2018-02-21T16:46:22.086Z,21.60
2018-02-21T16:48:58.056Z,21.30
2018-02-21T16:51:37.445Z,18.10
2018-02-21T16:54:17.521Z,19.13
2018-02-21T16:56:55.409Z,20.00
2018-02-21T16:59:31.050Z,23.10
2018-02-21T17:02:08.739Z,20.13
2018-02-21T17:04:48.675Z,18.07
2018-02-21T17:08:25.099Z,19.23
2018-02-21T17:10:58.855Z,18.30
2018-02-21T17:13:33.359Z,19.30
2018-02-21T17:16:06.574Z,18.63
2018-02-21T17:18:40.572Z,13.60
2018-02-21T17:21:14.142Z,15.10
2018-02-21T17:23:47.995Z,13.90
2018-02-21T17:26:24.992Z,21.37
2018-02-21T17:29:02.226Z,16.87
2018-02-21T17:31:35.404Z,18.73
2018-02-21T17:34:11.205Z,14.60
2018-02-21T17:36:46.529Z,16.40
2018-02-21T17:39:22.558Z,16.97
2018-02-21T17:41:59.031Z,15.87
2018-02-21T17:44:33.689Z,16.10
2018-02-21T17:47:07.441Z,16.20
2018-02-21T17:49:43.308Z,20.33
2018-02-21T17:52:18.300Z,21.03
2018-02-21T17:54:55.245Z,22.20
2018-02-21T17:57:33.212Z,13.47
2018-02-21T18:00:13.462Z,16.87
2018-02-21T18:03:01.632Z,15.90
2018-02-21T18:05:47.039Z,17.53
2018-02-21T18:08:25.373Z,16.70
2018-02-21T18:11:01.951Z,17.63
2018-02-21T18:13:38.993Z,20.67
2018-02-21T18:16:26.519Z,17.20
2018-02-21T18:19:04.495Z,19.03
2018-02-21T18:21:47.166Z,19.03
2018-02-21T18:24:27.523Z,16.57
2018-02-21T18:27:04.098Z,23.50
2018-02-21T18:32:35.744Z,26.00
2018-02-21T18:35:18.178Z,24.47
2018-02-21T18:37:56.857Z,25.60
2018-02-21T18:40:34.640Z,23.00
2018-02-21T18:43:12.250Z,23.07
2018-02-21T18:45:56.419Z,24.73
2018-02-21T18:48:34.386Z,22.60
2018-02-21T18:51:13.161Z,20.23
2018-02-21T18:53:49.074Z,19.67
2018-02-21T18:56:31.273Z,18.20
2018-02-21T18:59:08.422Z,23.80
2018-02-21T19:01:47.062Z,18.57
2018-02-21T19:04:28.957Z,22.03
2018-02-21T19:07:09.878Z,22.83
2018-02-21T19:09:50.795Z,20.03
2018-02-21T19:12:26.686Z,14.30
2018-02-21T19:15:07.576Z,20.13
2018-02-21T19:17:50.838Z,18.13
2018-02-21T19:20:29.322Z,21.03
2018-02-21T19:23:08.328Z,19.43
2018-02-21T19:25:45.136Z,18.97
2018-02-21T19:28:24.031Z,19.47
2018-02-21T19:31:01.989Z,16.17
2018-02-21T19:33:40.235Z,22.73
2018-02-21T19:36:21.337Z,20.27
2018-02-21T19:39:00.993Z,21.23
2018-02-21T19:41:38.048Z,19.73
2018-02-21T19:44:16.938Z,24.23
2018-02-21T19:46:57.904Z,28.43
2018-02-21T19:49:37.763Z,20.63
2018-02-21T19:52:18.006Z,20.33
2018-02-21T19:54:58.679Z,22.20
2018-02-21T19:57:43.540Z,28.00
2018-02-21T20:00:23.773Z,26.43
2018-02-21T20:05:59.619Z,22.73
2018-02-21T20:08:34.539Z,27.13
2018-02-21T20:11:12.862Z,24.23
2018-02-21T20:13:53.813Z,26.47
2018-02-21T20:16:32.933Z,23.17
2018-02-21T20:19:11.956Z,24.27
2018-02-21T20:21:57.122Z,24.20
2018-02-21T20:24:43.894Z,37.30
2018-02-21T20:27:23.125Z,35.53
2018-02-21T20:30:07.536Z,30.27
2018-02-21T20:32:51.952Z,30.40
2018-02-21T20:35:37.266Z,34.03
2018-02-21T20:38:21.000Z,34.37
2018-02-21T20:41:02.881Z,30.30
2018-02-21T20:43:56.464Z,24.87
2018-02-21T20:46:35.040Z,23.53
2018-02-21T20:49:12.924Z,29.00
2018-02-21T20:51:48.163Z,20.20
2018-02-21T20:54:24.144Z,19.20
2018-02-21T20:57:03.618Z,21.13
2018-02-21T20:59:39.575Z,17.43
2018-02-21T21:02:23.109Z,19.83
2018-02-21T21:05:02.886Z,16.27
2018-02-21T21:07:40.100Z,19.43
2018-02-21T21:10:17.789Z,18.13
2018-02-21T21:12:54.671Z,19.87
2018-02-21T21:15:33.701Z,16.53
2018-02-21T21:18:09.740Z,17.70
2018-02-21T21:20:47.293Z,17.50
2018-02-21T21:23:26.285Z,17.73
2018-02-21T21:26:03.038Z,17.60
2018-02-21T21:28:44.377Z,14.77
2018-02-21T21:31:21.346Z,20.40
2018-02-21T21:33:59.260Z,16.90
2018-02-21T21:36:36.745Z,13.60
2018-02-21T21:39:11.323Z,14.10
2018-02-21T21:41:44.413Z,19.17
2018-02-21T21:44:17.740Z,15.63
2018-02-21T21:46:47.546Z,16.70
2018-02-21T21:49:24.106Z,15.43
2018-02-21T21:51:56.086Z,17.40
2018-02-21T21:54:32.793Z,14.93
2018-02-21T21:57:11.385Z,18.93
2018-02-21T21:59:47.500Z,16.93
2018-02-21T22:02:19.152Z,17.60
2018-02-21T22:04:52.151Z,18.03
2018-02-21T22:07:22.995Z,16.33
2018-02-21T22:56:34.589Z,21.27
2018-02-21T22:59:03.169Z,20.40
2018-02-21T23:01:32.930Z,19.90
2018-02-21T23:04:03.660Z,19.50
2018-02-21T23:06:33.300Z,18.27
2018-02-21T23:09:03.000Z,18.80
2018-02-21T23:11:31.749Z,18.10
2018-02-21T23:14:00.315Z,17.83
2018-02-21T23:16:29.884Z,21.50
2018-02-21T23:19:00.106Z,18.70
2018-02-21T23:21:29.971Z,17.37
2018-02-21T23:24:01.902Z,19.97
2018-02-21T23:26:32.794Z,19.77
2018-02-21T23:29:05.412Z,19.60
2018-02-21T23:31:34.813Z,22.60
2018-02-21T23:34:03.828Z,19.90
2018-02-21T23:36:32.500Z,22.27
2018-02-21T23:39:01.394Z,21.87
2018-02-21T23:41:30.261Z,24.50
2018-02-21T23:43:59.605Z,21.50
2018-02-21T23:46:29.534Z,22.37
2018-02-21T23:48:58.965Z,29.43
2018-02-21T23:51:28.564Z,23.80
2018-02-21T23:53:57.704Z,22.20
2018-02-21T23:56:26.686Z,21.17
2018-02-21T23:58:55.530Z,20.23
